sensor_id;sensor_type;location;lat;lon;timestamp;P1;durP1;ratioP1;P2;durP2;ratioP2
15635;SDS011;7917;50.818;6.972;2023-02-28T00:00:52;5.97;;;3.65;;
15635;SDS011;7917;50.818;6.972;2023-02-28T00:03:19;9.13;;;3.40;;
15635;SDS011;7917;50.818;6.972;2023-02-28T00:05:58;10.32;;;4.03;;
15635;SDS011;7917;50.818;6.972;2023-02-28T00:08:37;5.78;;;3.60;;
15635;SDS011;7917;50.818;6.972;2023-02-28T00:11:06;5.35;;;3.03;;
15635;SDS011;7917;50.818;6.972;2023-02-28T00:13:34;7.00;;;3.33;;
15635;SDS011;7917;50.818;6.972;2023-02-28T00:16:10;4.32;;;2.85;;
15635;SDS011;7917;50.818;6.972;2023-02-28T00:18:38;6.70;;;3.83;;
15635;SDS011;7917;50.818;6.972;2023-02-28T00:21:06;10.75;;;3.72;;
15635;SDS011;7917;50.818;6.972;2023-02-28T00:23:34;4.57;;;3.35;;
15635;SDS011;7917;50.818;6.972;2023-02-28T00:26:02;7.38;;;3.58;;
15635;SDS011;7917;50.818;6.972;2023-02-28T00:28:30;6.18;;;3.30;;
15635;SDS011;7917;50.818;6.972;2023-02-28T00:30:57;7.40;;;3.50;;
15635;SDS011;7917;50.818;6.972;2023-02-28T00:33:25;5.22;;;3.47;;
15635;SDS011;7917;50.818;6.972;2023-02-28T00:36:00;6.30;;;3.22;;
15635;SDS011;7917;50.818;6.972;2023-02-28T00:38:29;5.68;;;3.78;;
15635;SDS011;7917;50.818;6.972;2023-02-28T00:40:56;5.93;;;3.05;;
15635;SDS011;7917;50.818;6.972;2023-02-28T00:43:23;4.97;;;3.17;;
15635;SDS011;7917;50.818;6.972;2023-02-28T00:45:51;7.95;;;2.97;;
15635;SDS011;7917;50.818;6.972;2023-02-28T00:48:18;5.93;;;3.28;;
15635;SDS011;7917;50.818;6.972;2023-02-28T00:50:48;6.20;;;3.05;;
15635;SDS011;7917;50.818;6.972;2023-02-28T00:53:16;4.40;;;3.10;;
15635;SDS011;7917;50.818;6.972;2023-02-28T00:55:43;3.53;;;2.88;;
15635;SDS011;7917;50.818;6.972;2023-02-28T00:58:10;13.05;;;3.10;;
15635;SDS011;7917;50.818;6.972;2023-02-28T01:00:37;4.30;;;2.83;;
15635;SDS011;7917;50.818;6.972;2023-02-28T01:03:04;7.72;;;3.50;;
15635;SDS011;7917;50.818;6.972;2023-02-28T01:05:31;5.22;;;3.10;;
15635;SDS011;7917;50.818;6.972;2023-02-28T01:07:58;5.45;;;3.10;;
15635;SDS011;7917;50.818;6.972;2023-02-28T01:10:25;4.47;;;2.80;;
15635;SDS011;7917;50.818;6.972;2023-02-28T01:12:56;5.65;;;2.90;;
15635;SDS011;7917;50.818;6.972;2023-02-28T01:15:23;9.35;;;3.28;;
15635;SDS011;7917;50.818;6.972;2023-02-28T01:17:50;5.95;;;3.08;;
15635;SDS011;7917;50.818;6.972;2023-02-28T01:20:18;5.47;;;2.80;;
15635;SDS011;7917;50.818;6.972;2023-02-28T01:22:45;5.30;;;2.90;;
15635;SDS011;7917;50.818;6.972;2023-02-28T01:25:12;4.45;;;2.67;;
15635;SDS011;7917;50.818;6.972;2023-02-28T01:27:40;3.58;;;2.65;;
15635;SDS011;7917;50.818;6.972;2023-02-28T01:30:07;5.00;;;2.58;;
15635;SDS011;7917;50.818;6.972;2023-02-28T01:32:35;5.78;;;2.78;;
15635;SDS011;7917;50.818;6.972;2023-02-28T01:35:03;4.63;;;2.83;;
15635;SDS011;7917;50.818;6.972;2023-02-28T01:37:31;6.07;;;2.90;;
15635;SDS011;7917;50.818;6.972;2023-02-28T01:39:58;5.18;;;2.90;;
15635;SDS011;7917;50.818;6.972;2023-02-28T01:42:24;5.15;;;2.85;;
15635;SDS011;7917;50.818;6.972;2023-02-28T01:44:58;5.32;;;3.15;;
15635;SDS011;7917;50.818;6.972;2023-02-28T01:47:32;4.57;;;2.85;;
15635;SDS011;7917;50.818;6.972;2023-02-28T01:50:03;4.00;;;2.67;;
15635;SDS011;7917;50.818;6.972;2023-02-28T01:55:48;6.03;;;3.00;;
15635;SDS011;7917;50.818;6.972;2023-02-28T01:58:18;4.70;;;2.67;;
15635;SDS011;7917;50.818;6.972;2023-02-28T02:00:45;4.07;;;2.92;;
15635;SDS011;7917;50.818;6.972;2023-02-28T02:03:13;5.18;;;2.88;;
15635;SDS011;7917;50.818;6.972;2023-02-28T02:05:45;5.32;;;3.20;;
15635;SDS011;7917;50.818;6.972;2023-02-28T02:08:16;6.25;;;2.90;;
15635;SDS011;7917;50.818;6.972;2023-02-28T02:10:44;5.82;;;3.22;;
15635;SDS011;7917;50.818;6.972;2023-02-28T02:16:24;5.95;;;2.83;;
15635;SDS011;7917;50.818;6.972;2023-02-28T02:19:02;3.83;;;3.05;;
15635;SDS011;7917;50.818;6.972;2023-02-28T02:27:57;4.50;;;2.97;;
15635;SDS011;7917;50.818;6.972;2023-02-28T02:36:53;4.80;;;3.20;;
15635;SDS011;7917;50.818;6.972;2023-02-28T02:39:31;5.28;;;3.10;;
15635;SDS011;7917;50.818;6.972;2023-02-28T02:42:09;3.40;;;2.38;;
15635;SDS011;7917;50.818;6.972;2023-02-28T02:44:43;8.48;;;3.60;;
15635;SDS011;7917;50.818;6.972;2023-02-28T02:47:14;5.68;;;3.15;;
15635;SDS011;7917;50.818;6.972;2023-02-28T02:49:46;5.70;;;2.80;;
15635;SDS011;7917;50.818;6.972;2023-02-28T02:52:15;9.98;;;3.40;;
15635;SDS011;7917;50.818;6.972;2023-02-28T02:54:48;5.72;;;3.25;;
15635;SDS011;7917;50.818;6.972;2023-02-28T02:57:21;4.53;;;3.33;;
15635;SDS011;7917;50.818;6.972;2023-02-28T02:59:51;6.10;;;3.08;;
15635;SDS011;7917;50.818;6.972;2023-02-28T03:02:21;5.28;;;2.80;;
15635;SDS011;7917;50.818;6.972;2023-02-28T03:04:54;4.85;;;3.00;;
15635;SDS011;7917;50.818;6.972;2023-02-28T03:07:27;2.80;;;2.40;;
15635;SDS011;7917;50.818;6.972;2023-02-28T03:09:54;4.82;;;2.63;;
15635;SDS011;7917;50.818;6.972;2023-02-28T03:12:23;5.72;;;2.90;;
15635;SDS011;7917;50.818;6.972;2023-02-28T03:15:00;5.00;;;3.35;;
15635;SDS011;7917;50.818;6.972;2023-02-28T03:17:47;6.43;;;3.30;;
15635;SDS011;7917;50.818;6.972;2023-02-28T03:20:30;6.25;;;2.75;;
15635;SDS011;7917;50.818;6.972;2023-02-28T03:23:08;8.70;;;3.42;;
15635;SDS011;7917;50.818;6.972;2023-02-28T03:28:44;5.68;;;3.15;;
15635;SDS011;7917;50.818;6.972;2023-02-28T03:31:17;4.82;;;3.00;;
15635;SDS011;7917;50.818;6.972;2023-02-28T03:33:49;3.95;;;2.90;;
15635;SDS011;7917;50.818;6.972;2023-02-28T03:36:22;6.25;;;2.90;;
15635;SDS011;7917;50.818;6.972;2023-02-28T03:38:56;6.68;;;3.70;;
15635;SDS011;7917;50.818;6.972;2023-02-28T03:41:29;6.20;;;3.13;;
15635;SDS011;7917;50.818;6.972;2023-02-28T03:43:59;7.30;;;3.20;;
15635;SDS011;7917;50.818;6.972;2023-02-28T03:46:31;5.88;;;2.95;;
15635;SDS011;7917;50.818;6.972;2023-02-28T03:49:03;6.55;;;3.10;;
15635;SDS011;7917;50.818;6.972;2023-02-28T03:51:39;6.47;;;2.67;;
15635;SDS011;7917;50.818;6.972;2023-02-28T03:54:09;6.45;;;3.17;;
15635;SDS011;7917;50.818;6.972;2023-02-28T03:56:42;4.50;;;2.50;;
15635;SDS011;7917;50.818;6.972;2023-02-28T03:59:14;4.22;;;2.83;;
15635;SDS011;7917;50.818;6.972;2023-02-28T04:04:49;5.38;;;3.35;;
15635;SDS011;7917;50.818;6.972;2023-02-28T04:07:16;6.82;;;3.10;;
15635;SDS011;7917;50.818;6.972;2023-02-28T04:09:43;3.25;;;2.55;;
15635;SDS011;7917;50.818;6.972;2023-02-28T04:12:11;3.88;;;2.80;;
15635;SDS011;7917;50.818;6.972;2023-02-28T04:14:37;5.70;;;3.15;;
15635;SDS011;7917;50.818;6.972;2023-02-28T04:17:04;4.13;;;3.10;;
15635;SDS011;7917;50.818;6.972;2023-02-28T04:19:30;7.43;;;3.40;;
15635;SDS011;7917;50.818;6.972;2023-02-28T04:21:57;4.82;;;3.15;;
15635;SDS011;7917;50.818;6.972;2023-02-28T04:24:24;5.88;;;3.20;;
15635;SDS011;7917;50.818;6.972;2023-02-28T04:26:53;8.20;;;3.35;;
15635;SDS011;7917;50.818;6.972;2023-02-28T04:29:22;5.88;;;3.15;;
15635;SDS011;7917;50.818;6.972;2023-02-28T04:31:49;4.55;;;3.35;;
15635;SDS011;7917;50.818;6.972;2023-02-28T04:37:51;5.43;;;3.15;;
15635;SDS011;7917;50.818;6.972;2023-02-28T04:40:18;9.10;;;3.45;;
15635;SDS011;7917;50.818;6.972;2023-02-28T04:42:45;6.07;;;2.80;;
15635;SDS011;7917;50.818;6.972;2023-02-28T04:45:13;8.23;;;3.35;;
15635;SDS011;7917;50.818;6.972;2023-02-28T04:47:39;6.13;;;3.30;;
15635;SDS011;7917;50.818;6.972;2023-02-28T04:50:06;9.38;;;3.35;;
15635;SDS011;7917;50.818;6.972;2023-02-28T04:52:34;6.18;;;3.15;;
15635;SDS011;7917;50.818;6.972;2023-02-28T04:55:01;5.70;;;2.90;;
15635;SDS011;7917;50.818;6.972;2023-02-28T04:57:28;9.75;;;3.17;;
15635;SDS011;7917;50.818;6.972;2023-02-28T04:59:55;6.60;;;3.65;;
15635;SDS011;7917;50.818;6.972;2023-02-28T05:02:21;4.47;;;3.05;;
15635;SDS011;7917;50.818;6.972;2023-02-28T05:04:50;6.50;;;3.70;;
15635;SDS011;7917;50.818;6.972;2023-02-28T05:07:22;4.50;;;3.38;;
15635;SDS011;7917;50.818;6.972;2023-02-28T05:09:49;8.57;;;3.47;;
15635;SDS011;7917;50.818;6.972;2023-02-28T05:12:16;5.18;;;3.40;;
15635;SDS011;7917;50.818;6.972;2023-02-28T05:14:43;5.68;;;3.40;;
15635;SDS011;7917;50.818;6.972;2023-02-28T05:17:09;5.93;;;2.97;;
15635;SDS011;7917;50.818;6.972;2023-02-28T05:19:36;5.47;;;3.25;;
15635;SDS011;7917;50.818;6.972;2023-02-28T05:22:02;4.57;;;3.03;;
15635;SDS011;7917;50.818;6.972;2023-02-28T05:24:29;6.93;;;3.28;;
15635;SDS011;7917;50.818;6.972;2023-02-28T05:26:56;4.15;;;2.95;;
15635;SDS011;7917;50.818;6.972;2023-02-28T05:29:24;5.65;;;3.92;;
15635;SDS011;7917;50.818;6.972;2023-02-28T05:31:51;5.57;;;3.65;;
15635;SDS011;7917;50.818;6.972;2023-02-28T05:34:17;5.07;;;3.47;;
15635;SDS011;7917;50.818;6.972;2023-02-28T05:36:44;5.32;;;3.40;;
15635;SDS011;7917;50.818;6.972;2023-02-28T05:39:11;8.18;;;3.97;;
15635;SDS011;7917;50.818;6.972;2023-02-28T05:41:42;3.63;;;2.92;;
15635;SDS011;7917;50.818;6.972;2023-02-28T05:44:09;11.63;;;7.90;;
15635;SDS011;7917;50.818;6.972;2023-02-28T05:46:36;8.40;;;6.68;;
15635;SDS011;7917;50.818;6.972;2023-02-28T05:49:04;6.07;;;4.35;;
15635;SDS011;7917;50.818;6.972;2023-02-28T05:51:34;5.60;;;3.58;;
15635;SDS011;7917;50.818;6.972;2023-02-28T05:54:01;4.97;;;4.25;;
15635;SDS011;7917;50.818;6.972;2023-02-28T05:56:28;5.93;;;4.03;;
15635;SDS011;7917;50.818;6.972;2023-02-28T05:58:54;5.80;;;3.97;;
15635;SDS011;7917;50.818;6.972;2023-02-28T06:04:08;4.63;;;3.78;;
15635;SDS011;7917;50.818;6.972;2023-02-28T06:06:36;7.13;;;4.20;;
15635;SDS011;7917;50.818;6.972;2023-02-28T06:09:02;6.75;;;4.00;;
15635;SDS011;7917;50.818;6.972;2023-02-28T06:11:30;7.22;;;4.13;;
15635;SDS011;7917;50.818;6.972;2023-02-28T06:13:57;4.85;;;3.63;;
15635;SDS011;7917;50.818;6.972;2023-02-28T06:16:24;5.50;;;4.10;;
15635;SDS011;7917;50.818;6.972;2023-02-28T06:18:51;5.75;;;4.05;;
15635;SDS011;7917;50.818;6.972;2023-02-28T06:21:21;8.05;;;3.92;;
15635;SDS011;7917;50.818;6.972;2023-02-28T06:23:48;4.35;;;3.70;;
15635;SDS011;7917;50.818;6.972;2023-02-28T06:26:15;5.90;;;3.95;;
15635;SDS011;7917;50.818;6.972;2023-02-28T06:28:41;7.00;;;4.10;;
15635;SDS011;7917;50.818;6.972;2023-02-28T06:31:09;9.15;;;3.53;;
15635;SDS011;7917;50.818;6.972;2023-02-28T06:33:37;4.68;;;3.60;;
15635;SDS011;7917;50.818;6.972;2023-02-28T06:36:05;5.47;;;3.65;;
15635;SDS011;7917;50.818;6.972;2023-02-28T06:38:33;6.22;;;4.35;;
15635;SDS011;7917;50.818;6.972;2023-02-28T06:41:00;6.93;;;4.18;;
15635;SDS011;7917;50.818;6.972;2023-02-28T06:43:27;6.93;;;4.63;;
15635;SDS011;7917;50.818;6.972;2023-02-28T06:45:55;4.75;;;3.00;;
15635;SDS011;7917;50.818;6.972;2023-02-28T06:48:22;5.00;;;4.00;;
15635;SDS011;7917;50.818;6.972;2023-02-28T06:50:49;5.43;;;3.50;;
15635;SDS011;7917;50.818;6.972;2023-02-28T06:53:16;5.28;;;4.00;;
15635;SDS011;7917;50.818;6.972;2023-02-28T06:55:44;7.03;;;4.25;;
15635;SDS011;7917;50.818;6.972;2023-02-28T06:58:10;4.32;;;3.60;;
15635;SDS011;7917;50.818;6.972;2023-02-28T07:00:40;6.32;;;3.80;;
15635;SDS011;7917;50.818;6.972;2023-02-28T07:03:07;4.88;;;3.58;;
15635;SDS011;7917;50.818;6.972;2023-02-28T07:05:34;5.35;;;4.15;;
15635;SDS011;7917;50.818;6.972;2023-02-28T07:08:01;4.95;;;3.50;;
15635;SDS011;7917;50.818;6.972;2023-02-28T07:10:28;5.97;;;4.05;;
15635;SDS011;7917;50.818;6.972;2023-02-28T07:12:55;6.15;;;3.53;;
15635;SDS011;7917;50.818;6.972;2023-02-28T07:15:22;11.20;;;4.10;;
15635;SDS011;7917;50.818;6.972;2023-02-28T07:17:48;6.07;;;3.80;;
15635;SDS011;7917;50.818;6.972;2023-02-28T07:20:15;5.57;;;3.33;;
15635;SDS011;7917;50.818;6.972;2023-02-28T07:22:42;5.72;;;3.90;;
15635;SDS011;7917;50.818;6.972;2023-02-28T07:25:08;6.70;;;4.00;;
15635;SDS011;7917;50.818;6.972;2023-02-28T07:27:36;5.72;;;3.78;;
15635;SDS011;7917;50.818;6.972;2023-02-28T07:30:04;8.05;;;3.58;;
15635;SDS011;7917;50.818;6.972;2023-02-28T07:32:31;5.55;;;3.63;;
15635;SDS011;7917;50.818;6.972;2023-02-28T07:34:58;4.75;;;3.15;;
15635;SDS011;7917;50.818;6.972;2023-02-28T07:37:25;3.88;;;3.17;;
15635;SDS011;7917;50.818;6.972;2023-02-28T07:43:13;4.25;;;3.35;;
15635;SDS011;7917;50.818;6.972;2023-02-28T07:45:40;5.97;;;3.28;;
15635;SDS011;7917;50.818;6.972;2023-02-28T07:48:06;6.18;;;3.28;;
15635;SDS011;7917;50.818;6.972;2023-02-28T07:50:35;9.90;;;3.10;;
15635;SDS011;7917;50.818;6.972;2023-02-28T07:53:02;3.70;;;3.25;;
15635;SDS011;7917;50.818;6.972;2023-02-28T07:55:29;8.20;;;4.03;;
15635;SDS011;7917;50.818;6.972;2023-02-28T07:57:56;4.82;;;2.60;;
15635;SDS011;7917;50.818;6.972;2023-02-28T08:00:23;6.00;;;3.17;;
15635;SDS011;7917;50.818;6.972;2023-02-28T08:02:50;4.57;;;2.88;;
15635;SDS011;7917;50.818;6.972;2023-02-28T08:05:17;4.03;;;3.03;;
15635;SDS011;7917;50.818;6.972;2023-02-28T08:07:44;5.18;;;3.08;;
15635;SDS011;7917;50.818;6.972;2023-02-28T08:10:10;8.88;;;3.17;;
15635;SDS011;7917;50.818;6.972;2023-02-28T08:12:38;2.55;;;2.35;;
15635;SDS011;7917;50.818;6.972;2023-02-28T08:15:04;6.82;;;2.80;;
15635;SDS011;7917;50.818;6.972;2023-02-28T08:17:32;3.85;;;2.72;;
15635;SDS011;7917;50.818;6.972;2023-02-28T08:19:59;6.38;;;3.13;;
15635;SDS011;7917;50.818;6.972;2023-02-28T08:22:29;3.20;;;2.90;;
15635;SDS011;7917;50.818;6.972;2023-02-28T08:24:55;5.32;;;3.20;;
15635;SDS011;7917;50.818;6.972;2023-02-28T08:27:22;6.22;;;3.33;;
15635;SDS011;7917;50.818;6.972;2023-02-28T08:33:10;3.30;;;2.42;;
15635;SDS011;7917;50.818;6.972;2023-02-28T08:35:37;3.22;;;2.80;;
15635;SDS011;7917;50.818;6.972;2023-02-28T08:38:04;3.33;;;2.58;;
15635;SDS011;7917;50.818;6.972;2023-02-28T08:40:30;3.05;;;2.30;;
15635;SDS011;7917;50.818;6.972;2023-02-28T08:42:57;2.88;;;2.17;;
15635;SDS011;7917;50.818;6.972;2023-02-28T08:45:23;3.97;;;2.42;;
15635;SDS011;7917;50.818;6.972;2023-02-28T08:47:50;4.53;;;2.80;;
15635;SDS011;7917;50.818;6.972;2023-02-28T08:50:17;6.25;;;2.50;;
15635;SDS011;7917;50.818;6.972;2023-02-28T08:52:45;5.40;;;2.80;;
15635;SDS011;7917;50.818;6.972;2023-02-28T08:55:11;2.58;;;2.08;;
15635;SDS011;7917;50.818;6.972;2023-02-28T08:57:38;4.10;;;2.30;;
15635;SDS011;7917;50.818;6.972;2023-02-28T09:00:05;2.40;;;2.10;;
15635;SDS011;7917;50.818;6.972;2023-02-28T09:02:33;4.75;;;4.22;;
15635;SDS011;7917;50.818;6.972;2023-02-28T09:05:00;2.88;;;2.38;;
15635;SDS011;7917;50.818;6.972;2023-02-28T09:07:28;4.93;;;2.28;;
15635;SDS011;7917;50.818;6.972;2023-02-28T09:09:55;4.85;;;3.03;;
15635;SDS011;7917;50.818;6.972;2023-02-28T09:12:23;4.03;;;2.30;;
15635;SDS011;7917;50.818;6.972;2023-02-28T09:14:50;3.20;;;2.17;;
15635;SDS011;7917;50.818;6.972;2023-02-28T09:17:17;2.58;;;2.13;;
15635;SDS011;7917;50.818;6.972;2023-02-28T09:19:44;2.63;;;1.77;;
15635;SDS011;7917;50.818;6.972;2023-02-28T09:22:11;4.00;;;2.00;;
15635;SDS011;7917;50.818;6.972;2023-02-28T09:24:38;2.15;;;1.90;;
15635;SDS011;7917;50.818;6.972;2023-02-28T09:27:05;14.23;;;2.33;;
15635;SDS011;7917;50.818;6.972;2023-02-28T09:29:33;3.03;;;2.22;;
15635;SDS011;7917;50.818;6.972;2023-02-28T09:32:00;4.97;;;2.17;;
15635;SDS011;7917;50.818;6.972;2023-02-28T09:34:27;1.90;;;1.67;;
15635;SDS011;7917;50.818;6.972;2023-02-28T09:40:18;5.40;;;2.13;;
15635;SDS011;7917;50.818;6.972;2023-02-28T09:42:48;3.08;;;2.13;;
15635;SDS011;7917;50.818;6.972;2023-02-28T09:45:22;4.35;;;1.90;;
15635;SDS011;7917;50.818;6.972;2023-02-28T09:47:53;3.15;;;2.13;;
15635;SDS011;7917;50.818;6.972;2023-02-28T09:50:23;2.25;;;1.75;;
15635;SDS011;7917;50.818;6.972;2023-02-28T09:53:02;3.85;;;2.33;;
15635;SDS011;7917;50.818;6.972;2023-02-28T09:55:39;7.15;;;2.20;;
15635;SDS011;7917;50.818;6.972;2023-02-28T09:58:11;3.17;;;1.92;;
15635;SDS011;7917;50.818;6.972;2023-02-28T10:00:45;3.45;;;2.40;;
15635;SDS011;7917;50.818;6.972;2023-02-28T10:03:27;4.70;;;1.83;;
15635;SDS011;7917;50.818;6.972;2023-02-28T10:06:00;8.38;;;3.17;;
15635;SDS011;7917;50.818;6.972;2023-02-28T10:08:34;4.25;;;2.10;;
15635;SDS011;7917;50.818;6.972;2023-02-28T10:11:07;3.92;;;2.53;;
15635;SDS011;7917;50.818;6.972;2023-02-28T10:13:39;2.53;;;2.05;;
15635;SDS011;7917;50.818;6.972;2023-02-28T10:16:12;4.05;;;2.25;;
15635;SDS011;7917;50.818;6.972;2023-02-28T10:18:43;3.22;;;2.10;;
15635;SDS011;7917;50.818;6.972;2023-02-28T10:21:16;4.05;;;2.70;;
15635;SDS011;7917;50.818;6.972;2023-02-28T10:23:45;2.85;;;2.08;;
15635;SDS011;7917;50.818;6.972;2023-02-28T10:26:14;4.57;;;2.17;;
15635;SDS011;7917;50.818;6.972;2023-02-28T10:28:44;3.28;;;2.13;;
15635;SDS011;7917;50.818;6.972;2023-02-28T10:31:11;4.97;;;2.50;;
15635;SDS011;7917;50.818;6.972;2023-02-28T10:33:42;4.63;;;2.50;;
15635;SDS011;7917;50.818;6.972;2023-02-28T10:36:10;3.50;;;2.35;;
15635;SDS011;7917;50.818;6.972;2023-02-28T10:41:54;3.15;;;2.38;;
15635;SDS011;7917;50.818;6.972;2023-02-28T10:44:23;3.58;;;2.92;;
15635;SDS011;7917;50.818;6.972;2023-02-28T10:46:52;7.07;;;2.55;;
15635;SDS011;7917;50.818;6.972;2023-02-28T10:49:20;3.78;;;2.90;;
15635;SDS011;7917;50.818;6.972;2023-02-28T10:51:49;3.20;;;2.50;;
15635;SDS011;7917;50.818;6.972;2023-02-28T10:54:19;5.35;;;3.30;;
15635;SDS011;7917;50.818;6.972;2023-02-28T10:59:34;3.08;;;2.65;;
15635;SDS011;7917;50.818;6.972;2023-02-28T11:02:01;3.30;;;2.70;;
15635;SDS011;7917;50.818;6.972;2023-02-28T11:04:37;4.30;;;2.80;;
15635;SDS011;7917;50.818;6.972;2023-02-28T11:07:05;2.55;;;2.33;;
15635;SDS011;7917;50.818;6.972;2023-02-28T11:09:44;3.20;;;2.60;;
15635;SDS011;7917;50.818;6.972;2023-02-28T11:12:19;3.83;;;2.10;;
15635;SDS011;7917;50.818;6.972;2023-02-28T11:18:19;4.57;;;2.40;;
15635;SDS011;7917;50.818;6.972;2023-02-28T11:20:52;2.88;;;2.30;;
15635;SDS011;7917;50.818;6.972;2023-02-28T11:23:21;2.80;;;2.17;;
15635;SDS011;7917;50.818;6.972;2023-02-28T11:25:51;2.78;;;2.33;;
15635;SDS011;7917;50.818;6.972;2023-02-28T11:28:26;5.40;;;3.78;;
15635;SDS011;7917;50.818;6.972;2023-02-28T11:31:01;3.60;;;2.40;;
15635;SDS011;7917;50.818;6.972;2023-02-28T11:33:39;2.97;;;2.15;;
15635;SDS011;7917;50.818;6.972;2023-02-28T11:36:11;4.32;;;2.47;;
15635;SDS011;7917;50.818;6.972;2023-02-28T11:38:41;3.55;;;2.30;;
15635;SDS011;7917;50.818;6.972;2023-02-28T11:41:12;2.50;;;2.30;;
15635;SDS011;7917;50.818;6.972;2023-02-28T11:43:59;2.95;;;2.42;;
15635;SDS011;7917;50.818;6.972;2023-02-28T11:46:47;3.97;;;2.38;;
15635;SDS011;7917;50.818;6.972;2023-02-28T11:49:27;3.88;;;2.28;;
15635;SDS011;7917;50.818;6.972;2023-02-28T11:52:01;2.88;;;2.30;;
15635;SDS011;7917;50.818;6.972;2023-02-28T11:54:38;6.38;;;2.70;;
15635;SDS011;7917;50.818;6.972;2023-02-28T11:57:21;2.70;;;2.30;;
15635;SDS011;7917;50.818;6.972;2023-02-28T12:00:00;3.05;;;2.50;;
15635;SDS011;7917;50.818;6.972;2023-02-28T12:02:36;3.58;;;2.58;;
15635;SDS011;7917;50.818;6.972;2023-02-28T12:05:23;3.35;;;2.60;;
15635;SDS011;7917;50.818;6.972;2023-02-28T12:07:58;4.35;;;2.25;;
15635;SDS011;7917;50.818;6.972;2023-02-28T12:10:33;3.55;;;2.58;;
15635;SDS011;7917;50.818;6.972;2023-02-28T12:13:10;4.38;;;2.40;;
15635;SDS011;7917;50.818;6.972;2023-02-28T12:15:51;2.42;;;2.22;;
15635;SDS011;7917;50.818;6.972;2023-02-28T12:18:42;5.90;;;2.78;;
15635;SDS011;7917;50.818;6.972;2023-02-28T12:21:22;3.72;;;2.83;;
15635;SDS011;7917;50.818;6.972;2023-02-28T12:24:00;5.53;;;2.90;;
15635;SDS011;7917;50.818;6.972;2023-02-28T12:26:51;6.00;;;3.10;;
15635;SDS011;7917;50.818;6.972;2023-02-28T12:29:21;3.20;;;2.88;;
15635;SDS011;7917;50.818;6.972;2023-02-28T12:31:53;3.67;;;3.22;;
15635;SDS011;7917;50.818;6.972;2023-02-28T12:34:25;4.85;;;2.95;;
15635;SDS011;7917;50.818;6.972;2023-02-28T12:36:58;5.10;;;2.92;;
15635;SDS011;7917;50.818;6.972;2023-02-28T12:39:30;3.70;;;2.80;;
15635;SDS011;7917;50.818;6.972;2023-02-28T12:42:01;3.10;;;2.80;;
15635;SDS011;7917;50.818;6.972;2023-02-28T12:44:37;4.90;;;3.05;;
15635;SDS011;7917;50.818;6.972;2023-02-28T12:47:13;3.80;;;2.60;;
15635;SDS011;7917;50.818;6.972;2023-02-28T12:49:42;4.40;;;3.22;;
15635;SDS011;7917;50.818;6.972;2023-02-28T12:52:14;4.70;;;3.03;;
15635;SDS011;7917;50.818;6.972;2023-02-28T12:54:47;4.45;;;2.78;;
15635;SDS011;7917;50.818;6.972;2023-02-28T12:57:18;3.95;;;3.33;;
15635;SDS011;7917;50.818;6.972;2023-02-28T12:59:55;3.83;;;2.95;;
15635;SDS011;7917;50.818;6.972;2023-02-28T13:02:50;4.93;;;3.58;;
15635;SDS011;7917;50.818;6.972;2023-02-28T13:05:54;3.72;;;3.08;;
15635;SDS011;7917;50.818;6.972;2023-02-28T13:11:41;4.45;;;3.40;;
15635;SDS011;7917;50.818;6.972;2023-02-28T13:14:23;5.82;;;3.42;;
15635;SDS011;7917;50.818;6.972;2023-02-28T13:16:57;3.13;;;2.75;;
15635;SDS011;7917;50.818;6.972;2023-02-28T13:19:30;3.88;;;3.35;;
15635;SDS011;7917;50.818;6.972;2023-02-28T13:22:00;3.75;;;3.28;;
15635;SDS011;7917;50.818;6.972;2023-02-28T13:27:24;5.75;;;3.30;;
15635;SDS011;7917;50.818;6.972;2023-02-28T13:30:49;4.05;;;3.22;;
15635;SDS011;7917;50.818;6.972;2023-02-28T13:33:22;4.82;;;3.17;;
15635;SDS011;7917;50.818;6.972;2023-02-28T13:36:01;9.45;;;3.67;;
15635;SDS011;7917;50.818;6.972;2023-02-28T13:38:37;4.78;;;3.63;;
15635;SDS011;7917;50.818;6.972;2023-02-28T13:44:18;4.18;;;3.25;;
15635;SDS011;7917;50.818;6.972;2023-02-28T13:49:54;3.50;;;3.20;;
15635;SDS011;7917;50.818;6.972;2023-02-28T13:55:24;6.00;;;3.33;;
15635;SDS011;7917;50.818;6.972;2023-02-28T13:58:01;6.18;;;3.05;;
15635;SDS011;7917;50.818;6.972;2023-02-28T14:00:43;4.03;;;3.40;;
15635;SDS011;7917;50.818;6.972;2023-02-28T14:03:29;4.15;;;3.55;;
15635;SDS011;7917;50.818;6.972;2023-02-28T14:06:14;4.25;;;3.72;;
15635;SDS011;7917;50.818;6.972;2023-02-28T14:08:52;4.85;;;2.90;;
15635;SDS011;7917;50.818;6.972;2023-02-28T14:11:30;3.83;;;3.40;;
15635;SDS011;7917;50.818;6.972;2023-02-28T14:14:00;5.38;;;3.40;;
15635;SDS011;7917;50.818;6.972;2023-02-28T14:16:35;4.55;;;3.80;;
15635;SDS011;7917;50.818;6.972;2023-02-28T14:19:09;5.65;;;3.70;;
15635;SDS011;7917;50.818;6.972;2023-02-28T14:21:40;4.32;;;3.65;;
15635;SDS011;7917;50.818;6.972;2023-02-28T14:27:16;4.38;;;3.80;;
15635;SDS011;7917;50.818;6.972;2023-02-28T14:30:01;5.10;;;3.67;;
15635;SDS011;7917;50.818;6.972;2023-02-28T14:32:49;5.93;;;3.90;;
15635;SDS011;7917;50.818;6.972;2023-02-28T14:35:29;4.28;;;3.65;;
15635;SDS011;7917;50.818;6.972;2023-02-28T14:38:13;5.43;;;3.88;;
15635;SDS011;7917;50.818;6.972;2023-02-28T14:40:46;6.50;;;3.90;;
15635;SDS011;7917;50.818;6.972;2023-02-28T14:43:19;4.68;;;3.40;;
15635;SDS011;7917;50.818;6.972;2023-02-28T14:45:49;6.05;;;4.07;;
15635;SDS011;7917;50.818;6.972;2023-02-28T14:48:19;4.82;;;3.58;;
15635;SDS011;7917;50.818;6.972;2023-02-28T14:50:51;3.85;;;3.25;;
15635;SDS011;7917;50.818;6.972;2023-02-28T14:53:20;5.72;;;3.45;;
15635;SDS011;7917;50.818;6.972;2023-02-28T14:55:49;7.55;;;3.83;;
15635;SDS011;7917;50.818;6.972;2023-02-28T14:58:25;9.20;;;3.83;;
15635;SDS011;7917;50.818;6.972;2023-02-28T15:00:54;6.05;;;3.60;;
15635;SDS011;7917;50.818;6.972;2023-02-28T15:03:22;4.90;;;3.53;;
15635;SDS011;7917;50.818;6.972;2023-02-28T15:05:54;4.47;;;3.67;;
15635;SDS011;7917;50.818;6.972;2023-02-28T15:08:23;6.70;;;4.25;;
15635;SDS011;7917;50.818;6.972;2023-02-28T15:10:51;6.70;;;4.10;;
15635;SDS011;7917;50.818;6.972;2023-02-28T15:13:20;4.80;;;3.58;;
15635;SDS011;7917;50.818;6.972;2023-02-28T15:15:50;3.90;;;3.40;;
15635;SDS011;7917;50.818;6.972;2023-02-28T15:18:23;4.20;;;3.70;;
15635;SDS011;7917;50.818;6.972;2023-02-28T15:20:58;5.13;;;4.07;;
15635;SDS011;7917;50.818;6.972;2023-02-28T15:23:30;4.25;;;3.70;;
15635;SDS011;7917;50.818;6.972;2023-02-28T15:26:00;5.43;;;3.42;;
15635;SDS011;7917;50.818;6.972;2023-02-28T15:28:28;5.82;;;3.80;;
15635;SDS011;7917;50.818;6.972;2023-02-28T15:30:57;4.03;;;3.63;;
15635;SDS011;7917;50.818;6.972;2023-02-28T15:33:26;4.63;;;4.22;;
15635;SDS011;7917;50.818;6.972;2023-02-28T15:38:40;5.13;;;4.03;;
15635;SDS011;7917;50.818;6.972;2023-02-28T15:41:16;4.97;;;4.03;;
15635;SDS011;7917;50.818;6.972;2023-02-28T15:44:10;5.90;;;4.40;;
15635;SDS011;7917;50.818;6.972;2023-02-28T15:46:40;5.10;;;4.47;;
15635;SDS011;7917;50.818;6.972;2023-02-28T15:49:17;7.35;;;4.88;;
15635;SDS011;7917;50.818;6.972;2023-02-28T15:51:47;5.72;;;4.20;;
15635;SDS011;7917;50.818;6.972;2023-02-28T15:54:17;5.82;;;4.07;;
15635;SDS011;7917;50.818;6.972;2023-02-28T15:56:49;6.53;;;4.05;;
15635;SDS011;7917;50.818;6.972;2023-02-28T15:59:20;5.45;;;4.38;;
15635;SDS011;7917;50.818;6.972;2023-02-28T16:02:02;5.45;;;4.10;;
15635;SDS011;7917;50.818;6.972;2023-02-28T16:07:22;5.13;;;4.18;;
15635;SDS011;7917;50.818;6.972;2023-02-28T16:09:50;4.85;;;3.95;;
15635;SDS011;7917;50.818;6.972;2023-02-28T16:12:18;4.45;;;4.00;;
15635;SDS011;7917;50.818;6.972;2023-02-28T16:14:46;4.53;;;3.65;;
15635;SDS011;7917;50.818;6.972;2023-02-28T16:17:19;5.00;;;3.95;;
15635;SDS011;7917;50.818;6.972;2023-02-28T16:19:48;5.68;;;3.85;;
15635;SDS011;7917;50.818;6.972;2023-02-28T16:22:15;8.02;;;4.40;;
15635;SDS011;7917;50.818;6.972;2023-02-28T16:24:42;8.00;;;3.80;;
15635;SDS011;7917;50.818;6.972;2023-02-28T16:27:11;5.38;;;4.30;;
15635;SDS011;7917;50.818;6.972;2023-02-28T16:29:44;4.53;;;4.13;;
15635;SDS011;7917;50.818;6.972;2023-02-28T16:32:12;5.03;;;4.03;;
15635;SDS011;7917;50.818;6.972;2023-02-28T16:34:41;5.55;;;4.25;;
15635;SDS011;7917;50.818;6.972;2023-02-28T16:37:09;5.75;;;4.10;;